sensor_id;sensor_type;location;lat;lon;timestamp;pressure;altitude;pressure_sealevel;temperature;humidity
77702;BME280;66868;42.708;23.404;2023-12-14T00:01:42;94208.84;;;6.19;85.83
77702;BME280;66868;42.708;23.404;2023-12-14T00:04:08;94208.28;;;6.14;85.90
77702;BME280;66868;42.708;23.404;2023-12-14T00:06:33;94206.28;;;6.05;85.63
77702;BME280;66868;42.708;23.404;2023-12-14T00:08:59;94216.16;;;6.08;86.01
77702;BME280;66868;42.708;23.404;2023-12-14T00:11:24;94214.13;;;6.14;85.93
77702;BME280;66868;42.708;23.404;2023-12-14T00:13:50;94210.78;;;6.14;86.34
77702;BME280;66868;42.708;23.404;2023-12-14T00:16:15;94187.78;;;6.06;85.34
77702;BME280;66868;42.708;23.404;2023-12-14T00:18:41;94182.88;;;6.04;86.15
77702;BME280;66868;42.708;23.404;2023-12-14T00:21:06;94190.72;;;5.98;86.52
77702;BME280;66868;42.708;23.404;2023-12-14T00:23:33;94169.69;;;5.69;87.83
77702;BME280;66868;42.708;23.404;2023-12-14T00:25:59;94161.84;;;5.75;87.42
77702;BME280;66868;42.708;23.404;2023-12-14T00:28:24;94201.22;;;5.91;87.08
77702;BME280;66868;42.708;23.404;2023-12-14T00:30:50;94215.22;;;5.95;87.52
77702;BME280;66868;42.708;23.404;2023-12-14T00:33:15;94203.41;;;5.65;88.60
77702;BME280;66868;42.708;23.404;2023-12-14T00:35:41;94209.06;;;5.69;87.93
77702;BME280;66868;42.708;23.404;2023-12-14T00:38:06;94153.69;;;5.56;88.74
77702;BME280;66868;42.708;23.404;2023-12-14T00:40:32;94193.16;;;5.84;87.93
77702;BME280;66868;42.708;23.404;2023-12-14T00:42:58;94211.00;;;5.79;87.94
77702;BME280;66868;42.708;23.404;2023-12-14T00:45:23;94201.94;;;5.77;88.67
77702;BME280;66868;42.708;23.404;2023-12-14T00:47:48;94193.22;;;5.68;88.66
77702;BME280;66868;42.708;23.404;2023-12-14T00:50:14;94209.94;;;5.84;88.98
77702;BME280;66868;42.708;23.404;2023-12-14T00:52:39;94197.06;;;5.74;87.67
77702;BME280;66868;42.708;23.404;2023-12-14T00:55:05;94203.88;;;5.72;88.71
77702;BME280;66868;42.708;23.404;2023-12-14T00:57:31;94201.94;;;5.77;88.10
77702;BME280;66868;42.708;23.404;2023-12-14T00:59:56;94193.81;;;5.88;88.71
77702;BME280;66868;42.708;23.404;2023-12-14T01:02:22;94192.94;;;5.89;87.39
77702;BME280;66868;42.708;23.404;2023-12-14T01:04:48;94194.50;;;5.91;87.28
77702;BME280;66868;42.708;23.404;2023-12-14T01:07:13;94205.44;;;5.90;87.28
77702;BME280;66868;42.708;23.404;2023-12-14T01:09:39;94200.69;;;5.84;87.56
77702;BME280;66868;42.708;23.404;2023-12-14T01:12:04;94209.63;;;5.90;86.79
77702;BME280;66868;42.708;23.404;2023-12-14T01:14:30;94181.53;;;5.67;87.78
77702;BME280;66868;42.708;23.404;2023-12-14T01:16:56;94199.56;;;5.74;87.78
77702;BME280;66868;42.708;23.404;2023-12-14T01:19:21;94167.69;;;5.60;87.14
77702;BME280;66868;42.708;23.404;2023-12-14T01:21:47;94172.94;;;5.71;88.22
77702;BME280;66868;42.708;23.404;2023-12-14T01:24:12;94204.19;;;5.82;88.29
77702;BME280;66868;42.708;23.404;2023-12-14T01:26:38;94191.53;;;5.83;87.98
77702;BME280;66868;42.708;23.404;2023-12-14T01:29:03;94192.72;;;5.77;88.21
77702;BME280;66868;42.708;23.404;2023-12-14T01:31:29;94179.13;;;5.66;87.26
77702;BME280;66868;42.708;23.404;2023-12-14T01:33:54;94201.84;;;5.78;87.34
77702;BME280;66868;42.708;23.404;2023-12-14T01:36:23;94183.00;;;5.56;88.36
77702;BME280;66868;42.708;23.404;2023-12-14T01:38:49;94193.38;;;5.65;88.04
77702;BME280;66868;42.708;23.404;2023-12-14T01:41:15;94183.13;;;5.54;88.00
77702;BME280;66868;42.708;23.404;2023-12-14T01:43:41;94189.00;;;5.53;88.17
77702;BME280;66868;42.708;23.404;2023-12-14T01:46:06;94127.53;;;5.15;88.01
77702;BME280;66868;42.708;23.404;2023-12-14T01:48:32;94186.59;;;5.36;89.11
77702;BME280;66868;42.708;23.404;2023-12-14T01:50:57;94177.69;;;5.30;88.16
77702;BME280;66868;42.708;23.404;2023-12-14T01:53:23;94166.72;;;5.17;89.27
77702;BME280;66868;42.708;23.404;2023-12-14T01:55:48;94139.03;;;5.03;89.15
77702;BME280;66868;42.708;23.404;2023-12-14T01:58:14;94180.91;;;5.32;89.34
77702;BME280;66868;42.708;23.404;2023-12-14T02:00:44;94179.31;;;5.31;88.06
77702;BME280;66868;42.708;23.404;2023-12-14T02:03:11;94199.53;;;5.28;88.36
77702;BME280;66868;42.708;23.404;2023-12-14T02:05:37;94146.22;;;4.78;89.90
77702;BME280;66868;42.708;23.404;2023-12-14T02:08:02;94166.69;;;5.02;90.08
77702;BME280;66868;42.708;23.404;2023-12-14T02:10:28;94172.84;;;5.12;90.42
77702;BME280;66868;42.708;23.404;2023-12-14T02:12:54;94186.84;;;5.16;90.56
77702;BME280;66868;42.708;23.404;2023-12-14T02:15:19;94171.22;;;5.11;89.50
77702;BME280;66868;42.708;23.404;2023-12-14T02:17:45;94175.34;;;5.12;90.16
77702;BME280;66868;42.708;23.404;2023-12-14T02:20:11;94100.03;;;4.66;89.58
77702;BME280;66868;42.708;23.404;2023-12-14T02:22:55;94168.06;;;5.07;90.66
77702;BME280;66868;42.708;23.404;2023-12-14T02:25:22;94125.03;;;4.83;89.96
77702;BME280;66868;42.708;23.404;2023-12-14T02:27:48;94163.94;;;5.06;90.47
77702;BME280;66868;42.708;23.404;2023-12-14T02:30:14;94165.81;;;5.03;90.38
77702;BME280;66868;42.708;23.404;2023-12-14T02:32:40;94149.38;;;4.97;90.59
77702;BME280;66868;42.708;23.404;2023-12-14T02:35:06;94129.38;;;4.96;89.94
77702;BME280;66868;42.708;23.404;2023-12-14T02:37:33;94143.38;;;5.00;90.19
77702;BME280;66868;42.708;23.404;2023-12-14T02:39:59;94155.69;;;5.04;89.88
77702;BME280;66868;42.708;23.404;2023-12-14T02:42:26;94154.16;;;5.02;90.08
77702;BME280;66868;42.708;23.404;2023-12-14T02:44:52;94155.53;;;4.92;90.75
77702;BME280;66868;42.708;23.404;2023-12-14T02:47:18;94166.28;;;4.94;91.33
77702;BME280;66868;42.708;23.404;2023-12-14T02:49:44;94151.63;;;4.86;90.90
77702;BME280;66868;42.708;23.404;2023-12-14T02:52:09;94164.41;;;4.81;90.86
77702;BME280;66868;42.708;23.404;2023-12-14T02:54:37;94171.97;;;4.64;92.59
77702;BME280;66868;42.708;23.404;2023-12-14T02:57:03;94171.09;;;4.65;92.78
77702;BME280;66868;42.708;23.404;2023-12-14T02:59:29;94139.28;;;4.50;93.59
77702;BME280;66868;42.708;23.404;2023-12-14T03:01:54;94169.47;;;4.64;93.19
77702;BME280;66868;42.708;23.404;2023-12-14T03:04:19;94160.50;;;4.60;93.36
77702;BME280;66868;42.708;23.404;2023-12-14T03:06:45;94164.97;;;4.71;93.36
77702;BME280;66868;42.708;23.404;2023-12-14T03:09:10;94175.47;;;4.77;93.18
77702;BME280;66868;42.708;23.404;2023-12-14T03:11:36;94133.91;;;4.73;92.46
77702;BME280;66868;42.708;23.404;2023-12-14T03:14:01;94143.31;;;4.85;92.82
77702;BME280;66868;42.708;23.404;2023-12-14T03:16:27;94149.22;;;4.84;93.25
77702;BME280;66868;42.708;23.404;2023-12-14T03:18:52;94168.47;;;4.84;93.55
77702;BME280;66868;42.708;23.404;2023-12-14T03:21:19;94134.56;;;4.77;93.50
77702;BME280;66868;42.708;23.404;2023-12-14T03:23:45;94147.53;;;4.85;94.07
77702;BME280;66868;42.708;23.404;2023-12-14T03:26:11;94150.44;;;4.93;93.29
77702;BME280;66868;42.708;23.404;2023-12-14T03:28:36;94138.06;;;4.90;92.92
77702;BME280;66868;42.708;23.404;2023-12-14T03:31:02;94143.88;;;5.06;92.32
77702;BME280;66868;42.708;23.404;2023-12-14T03:33:28;94099.97;;;4.99;92.53
77702;BME280;66868;42.708;23.404;2023-12-14T03:35:53;94149.97;;;5.18;91.30
77702;BME280;66868;42.708;23.404;2023-12-14T03:38:19;94132.06;;;5.24;92.01
77702;BME280;66868;42.708;23.404;2023-12-14T03:40:44;94129.28;;;5.28;91.56
77702;BME280;66868;42.708;23.404;2023-12-14T03:43:10;94124.28;;;5.28;90.71
77702;BME280;66868;42.708;23.404;2023-12-14T03:45:35;94121.44;;;5.19;91.87
77702;BME280;66868;42.708;23.404;2023-12-14T03:48:01;94129.47;;;5.25;90.51
77702;BME280;66868;42.708;23.404;2023-12-14T03:50:26;94111.41;;;5.19;90.09
77702;BME280;66868;42.708;23.404;2023-12-14T03:52:53;94107.72;;;5.26;90.58
77702;BME280;66868;42.708;23.404;2023-12-14T03:55:18;94119.81;;;5.33;90.03
77702;BME280;66868;42.708;23.404;2023-12-14T03:57:44;94118.13;;;5.34;89.51
77702;BME280;66868;42.708;23.404;2023-12-14T04:00:13;94122.09;;;5.38;89.63
77702;BME280;66868;42.708;23.404;2023-12-14T04:02:40;94131.94;;;5.41;90.60
77702;BME280;66868;42.708;23.404;2023-12-14T04:05:09;94142.09;;;5.40;90.31
77702;BME280;66868;42.708;23.404;2023-12-14T04:07:38;94130.41;;;5.39;90.78
77702;BME280;66868;42.708;23.404;2023-12-14T04:10:10;94122.34;;;5.33;89.75
77702;BME280;66868;42.708;23.404;2023-12-14T04:12:37;94145.41;;;5.40;89.84
77702;BME280;66868;42.708;23.404;2023-12-14T04:15:03;94130.09;;;5.29;90.45
77702;BME280;66868;42.708;23.404;2023-12-14T04:17:30;94143.47;;;5.45;89.45
77702;BME280;66868;42.708;23.404;2023-12-14T04:19:56;94147.41;;;5.33;90.26
77702;BME280;66868;42.708;23.404;2023-12-14T04:22:21;94100.00;;;5.13;89.50
77702;BME280;66868;42.708;23.404;2023-12-14T04:24:47;94143.41;;;5.31;89.73
77702;BME280;66868;42.708;23.404;2023-12-14T04:27:12;94143.22;;;5.34;89.70
77702;BME280;66868;42.708;23.404;2023-12-14T04:29:38;94121.06;;;5.11;89.82
77702;BME280;66868;42.708;23.404;2023-12-14T04:32:04;94135.44;;;5.23;90.12
77702;BME280;66868;42.708;23.404;2023-12-14T04:34:29;94141.13;;;5.26;89.71
77702;BME280;66868;42.708;23.404;2023-12-14T04:36:55;94127.03;;;5.24;90.06
77702;BME280;66868;42.708;23.404;2023-12-14T04:39:25;94115.00;;;5.15;89.12
77702;BME280;66868;42.708;23.404;2023-12-14T04:41:52;94139.56;;;5.24;89.86
77702;BME280;66868;42.708;23.404;2023-12-14T04:44:20;94089.63;;;4.89;89.43
77702;BME280;66868;42.708;23.404;2023-12-14T04:46:47;94153.81;;;5.23;89.50
77702;BME280;66868;42.708;23.404;2023-12-14T04:49:13;94138.63;;;5.11;89.57
77702;BME280;66868;42.708;23.404;2023-12-14T04:51:38;94128.34;;;5.00;90.17
77702;BME280;66868;42.708;23.404;2023-12-14T04:54:04;94157.06;;;5.10;89.88
77702;BME280;66868;42.708;23.404;2023-12-14T04:56:29;94155.84;;;5.01;90.20
77702;BME280;66868;42.708;23.404;2023-12-14T04:58:55;94143.47;;;4.98;90.54
77702;BME280;66868;42.708;23.404;2023-12-14T05:01:20;94103.59;;;4.62;91.02
77702;BME280;66868;42.708;23.404;2023-12-14T05:03:46;94126.91;;;4.80;90.49
77702;BME280;66868;42.708;23.404;2023-12-14T05:06:11;94132.25;;;4.89;90.82
77702;BME280;66868;42.708;23.404;2023-12-14T05:08:37;94148.41;;;4.84;90.70
77702;BME280;66868;42.708;23.404;2023-12-14T05:11:02;94132.56;;;4.83;91.25
77702;BME280;66868;42.708;23.404;2023-12-14T05:13:28;94134.06;;;4.86;91.54
77702;BME280;66868;42.708;23.404;2023-12-14T05:15:54;94125.91;;;4.82;91.68
77702;BME280;66868;42.708;23.404;2023-12-14T05:18:19;94151.25;;;4.94;91.05
77702;BME280;66868;42.708;23.404;2023-12-14T05:20:45;94117.34;;;4.86;91.10
77702;BME280;66868;42.708;23.404;2023-12-14T05:23:12;94135.63;;;4.88;90.91
77702;BME280;66868;42.708;23.404;2023-12-14T05:25:38;94150.50;;;4.92;91.24
77702;BME280;66868;42.708;23.404;2023-12-14T05:28:03;94147.44;;;4.86;90.58
77702;BME280;66868;42.708;23.404;2023-12-14T05:30:29;94123.97;;;4.72;90.94
77702;BME280;66868;42.708;23.404;2023-12-14T05:32:55;94143.88;;;4.75;91.77
77702;BME280;66868;42.708;23.404;2023-12-14T05:35:20;94148.13;;;4.73;91.55
77702;BME280;66868;42.708;23.404;2023-12-14T05:37:46;94080.69;;;4.37;91.05
77702;BME280;66868;42.708;23.404;2023-12-14T05:40:12;94176.69;;;4.70;90.90
77702;BME280;66868;42.708;23.404;2023-12-14T05:42:37;94100.63;;;4.23;91.05
77702;BME280;66868;42.708;23.404;2023-12-14T05:45:05;94153.03;;;4.59;91.21
77702;BME280;66868;42.708;23.404;2023-12-14T05:47:30;94125.88;;;4.51;91.16
77702;BME280;66868;42.708;23.404;2023-12-14T05:49:57;94149.19;;;4.69;91.20
77702;BME280;66868;42.708;23.404;2023-12-14T05:52:24;94148.13;;;4.57;91.67
77702;BME280;66868;42.708;23.404;2023-12-14T05:54:50;94148.94;;;4.58;91.88
77702;BME280;66868;42.708;23.404;2023-12-14T05:57:15;94172.28;;;4.58;92.18
77702;BME280;66868;42.708;23.404;2023-12-14T05:59:41;94150.13;;;4.51;92.22
77702;BME280;66868;42.708;23.404;2023-12-14T06:02:06;94151.13;;;4.64;92.16
77702;BME280;66868;42.708;23.404;2023-12-14T06:04:32;94170.13;;;4.68;92.52
77702;BME280;66868;42.708;23.404;2023-12-14T06:06:57;94159.97;;;4.71;92.10
77702;BME280;66868;42.708;23.404;2023-12-14T06:09:23;94175.69;;;4.57;92.43
77702;BME280;66868;42.708;23.404;2023-12-14T06:11:59;94174.25;;;4.53;92.83
77702;BME280;66868;42.708;23.404;2023-12-14T06:14:26;94117.72;;;4.15;93.11
77702;BME280;66868;42.708;23.404;2023-12-14T06:16:52;94157.06;;;4.45;92.76
77702;BME280;66868;42.708;23.404;2023-12-14T06:19:17;94157.41;;;4.55;92.54
77702;BME280;66868;42.708;23.404;2023-12-14T06:21:42;94184.44;;;4.66;92.02
77702;BME280;66868;42.708;23.404;2023-12-14T06:24:08;94164.06;;;4.56;91.74
77702;BME280;66868;42.708;23.404;2023-12-14T06:26:33;94193.34;;;4.71;91.53
77702;BME280;66868;42.708;23.404;2023-12-14T06:28:59;94195.69;;;4.74;92.09
77702;BME280;66868;42.708;23.404;2023-12-14T06:31:24;94208.06;;;4.77;92.20
77702;BME280;66868;42.708;23.404;2023-12-14T06:33:50;94206.13;;;4.82;91.65
77702;BME280;66868;42.708;23.404;2023-12-14T06:36:16;94208.84;;;4.62;92.35
77702;BME280;66868;42.708;23.404;2023-12-14T06:38:43;94209.56;;;4.64;92.62
77702;BME280;66868;42.708;23.404;2023-12-14T06:41:08;94190.28;;;4.66;92.81
77702;BME280;66868;42.708;23.404;2023-12-14T06:43:43;94211.78;;;4.70;92.40
77702;BME280;66868;42.708;23.404;2023-12-14T06:46:08;94213.06;;;4.77;92.97
77702;BME280;66868;42.708;23.404;2023-12-14T06:48:33;94196.16;;;4.65;93.44
77702;BME280;66868;42.708;23.404;2023-12-14T06:50:59;94203.22;;;4.74;93.15
77702;BME280;66868;42.708;23.404;2023-12-14T06:53:24;94218.53;;;4.85;92.97
77702;BME280;66868;42.708;23.404;2023-12-14T06:55:50;94228.97;;;4.94;92.98
77702;BME280;66868;42.708;23.404;2023-12-14T06:58:17;94165.84;;;4.70;94.02
77702;BME280;66868;42.708;23.404;2023-12-14T07:00:42;94218.00;;;5.12;93.45
77702;BME280;66868;42.708;23.404;2023-12-14T07:03:08;94215.72;;;5.23;92.97
77702;BME280;66868;42.708;23.404;2023-12-14T07:05:33;94202.16;;;5.27;93.68
77702;BME280;66868;42.708;23.404;2023-12-14T07:07:59;94224.06;;;5.39;92.51
77702;BME280;66868;42.708;23.404;2023-12-14T07:10:24;94221.06;;;5.48;92.03
77702;BME280;66868;42.708;23.404;2023-12-14T07:12:50;94230.94;;;5.51;91.54
77702;BME280;66868;42.708;23.404;2023-12-14T07:15:15;94230.13;;;5.66;92.19
77702;BME280;66868;42.708;23.404;2023-12-14T07:17:41;94215.94;;;5.65;91.38
77702;BME280;66868;42.708;23.404;2023-12-14T07:20:07;94222.97;;;5.74;91.45
77702;BME280;66868;42.708;23.404;2023-12-14T07:22:32;94238.38;;;5.84;91.95
77702;BME280;66868;42.708;23.404;2023-12-14T07:24:58;94236.59;;;5.86;90.88
77702;BME280;66868;42.708;23.404;2023-12-14T07:27:23;94239.03;;;5.88;91.77
77702;BME280;66868;42.708;23.404;2023-12-14T07:29:49;94236.44;;;6.05;91.21
77702;BME280;66868;42.708;23.404;2023-12-14T07:32:15;94235.38;;;6.09;90.47
77702;BME280;66868;42.708;23.404;2023-12-14T07:34:40;94242.09;;;6.08;91.14
77702;BME280;66868;42.708;23.404;2023-12-14T07:37:06;94239.13;;;6.16;91.05
77702;BME280;66868;42.708;23.404;2023-12-14T07:39:33;94241.88;;;6.27;91.43
77702;BME280;66868;42.708;23.404;2023-12-14T07:41:59;94224.53;;;6.22;91.00
77702;BME280;66868;42.708;23.404;2023-12-14T07:44:25;94247.28;;;6.35;90.82
77702;BME280;66868;42.708;23.404;2023-12-14T07:46:51;94258.97;;;6.50;91.00
77702;BME280;66868;42.708;23.404;2023-12-14T07:49:17;94207.59;;;6.26;90.58
77702;BME280;66868;42.708;23.404;2023-12-14T07:51:47;94265.66;;;6.65;90.96
77702;BME280;66868;42.708;23.404;2023-12-14T07:54:13;94270.31;;;6.72;90.13
77702;BME280;66868;42.708;23.404;2023-12-14T07:56:39;94265.94;;;6.61;91.41
77702;BME280;66868;42.708;23.404;2023-12-14T07:59:04;94234.94;;;6.46;92.27
77702;BME280;66868;42.708;23.404;2023-12-14T08:01:33;94263.66;;;6.71;91.37
77702;BME280;66868;42.708;23.404;2023-12-14T08:03:59;94263.06;;;6.81;91.08
77702;BME280;66868;42.708;23.404;2023-12-14T08:06:24;94247.91;;;6.97;91.03
77702;BME280;66868;42.708;23.404;2023-12-14T08:08:50;94249.25;;;7.02;90.75
77702;BME280;66868;42.708;23.404;2023-12-14T08:11:15;94258.31;;;7.19;89.78
77702;BME280;66868;42.708;23.404;2023-12-14T08:13:41;94257.56;;;7.31;90.41
77702;BME280;66868;42.708;23.404;2023-12-14T08:16:07;94258.66;;;7.41;90.95
77702;BME280;66868;42.708;23.404;2023-12-14T08:18:33;94261.09;;;7.43;90.28
77702;BME280;66868;42.708;23.404;2023-12-14T08:20:58;94252.91;;;7.53;90.08
77702;BME280;66868;42.708;23.404;2023-12-14T08:23:24;94243.44;;;7.57;90.01
77702;BME280;66868;42.708;23.404;2023-12-14T08:25:53;94262.53;;;7.74;89.30
77702;BME280;66868;42.708;23.404;2023-12-14T08:28:23;94265.50;;;7.80;89.50
77702;BME280;66868;42.708;23.404;2023-12-14T08:30:49;94265.75;;;7.90;89.14
77702;BME280;66868;42.708;23.404;2023-12-14T08:33:14;94266.59;;;8.03;89.43
77702;BME280;66868;42.708;23.404;2023-12-14T08:35:40;94275.09;;;8.15;89.07
77702;BME280;66868;42.708;23.404;2023-12-14T08:38:06;94265.25;;;8.24;88.62
77702;BME280;66868;42.708;23.404;2023-12-14T08:40:31;94271.06;;;8.39;88.46
77702;BME280;66868;42.708;23.404;2023-12-14T08:42:57;94259.28;;;8.39;88.26
77702;BME280;66868;42.708;23.404;2023-12-14T08:45:22;94258.09;;;8.58;88.12
77702;BME280;66868;42.708;23.404;2023-12-14T08:47:48;94268.00;;;8.73;87.86
77702;BME280;66868;42.708;23.404;2023-12-14T08:50:13;94273.75;;;8.88;87.97
77702;BME280;66868;42.708;23.404;2023-12-14T08:52:39;94252.25;;;8.70;87.67
77702;BME280;66868;42.708;23.404;2023-12-14T08:55:05;94265.41;;;8.88;87.66
77702;BME280;66868;42.708;23.404;2023-12-14T08:57:30;94255.69;;;8.94;87.37
77702;BME280;66868;42.708;23.404;2023-12-14T08:59:56;94279.53;;;9.15;87.11
77702;BME280;66868;42.708;23.404;2023-12-14T09:02:27;94260.63;;;9.08;87.01
77702;BME280;66868;42.708;23.404;2023-12-14T09:05:13;94280.72;;;9.22;87.01
77702;BME280;66868;42.708;23.404;2023-12-14T09:07:39;94272.03;;;9.26;86.87
77702;BME280;66868;42.708;23.404;2023-12-14T09:10:05;94284.13;;;9.47;85.73
77702;BME280;66868;42.708;23.404;2023-12-14T09:12:32;94279.09;;;9.47;85.78
77702;BME280;66868;42.708;23.404;2023-12-14T09:14:59;94251.81;;;9.39;85.20
77702;BME280;66868;42.708;23.404;2023-12-14T09:17:24;94249.47;;;9.49;85.61
77702;BME280;66868;42.708;23.404;2023-12-14T09:19:50;94232.19;;;9.55;85.47
77702;BME280;66868;42.708;23.404;2023-12-14T09:22:15;94254.56;;;9.72;85.26
77702;BME280;66868;42.708;23.404;2023-12-14T09:24:41;94241.47;;;9.55;84.13
77702;BME280;66868;42.708;23.404;2023-12-14T09:27:07;94251.66;;;9.66;83.79
77702;BME280;66868;42.708;23.404;2023-12-14T09:29:32;94252.44;;;9.79;84.01
77702;BME280;66868;42.708;23.404;2023-12-14T09:31:57;94213.19;;;9.50;83.76
77702;BME280;66868;42.708;23.404;2023-12-14T09:34:23;94270.69;;;9.83;84.15
77702;BME280;66868;42.708;23.404;2023-12-14T09:36:49;94266.88;;;9.77;84.09
77702;BME280;66868;42.708;23.404;2023-12-14T09:39:14;94267.75;;;9.89;84.42
77702;BME280;66868;42.708;23.404;2023-12-14T09:41:41;94282.31;;;9.85;84.24
77702;BME280;66868;42.708;23.404;2023-12-14T09:44:06;94262.22;;;9.84;84.38
77702;BME280;66868;42.708;23.404;2023-12-14T09:46:37;94255.63;;;9.81;84.50
77702;BME280;66868;42.708;23.404;2023-12-14T09:49:04;94256.19;;;9.97;83.93
77702;BME280;66868;42.708;23.404;2023-12-14T09:51:30;94268.09;;;9.84;83.26
77702;BME280;66868;42.708;23.404;2023-12-14T09:53:56;94286.94;;;9.91;84.40
77702;BME280;66868;42.708;23.404;2023-12-14T09:56:26;94230.81;;;9.75;84.89
77702;BME280;66868;42.708;23.404;2023-12-14T09:58:53;94296.50;;;10.11;84.13
77702;BME280;66868;42.708;23.404;2023-12-14T10:01:26;94288.91;;;10.11;84.34
77702;BME280;66868;42.708;23.404;2023-12-14T10:04:22;94296.09;;;10.17;84.19
77702;BME280;66868;42.708;23.404;2023-12-14T10:06:48;94286.38;;;10.11;84.59
77702;BME280;66868;42.708;23.404;2023-12-14T10:09:14;94282.34;;;10.22;84.71
77702;BME280;66868;42.708;23.404;2023-12-14T10:11:44;94236.47;;;10.02;84.54
77702;BME280;66868;42.708;23.404;2023-12-14T10:14:24;94279.69;;;10.10;84.32
77702;BME280;66868;42.708;23.404;2023-12-14T10:16:52;94281.91;;;10.15;84.65
77702;BME280;66868;42.708;23.404;2023-12-14T10:19:21;94292.28;;;9.99;84.24
77702;BME280;66868;42.708;23.404;2023-12-14T10:21:47;94279.84;;;9.96;83.62
77702;BME280;66868;42.708;23.404;2023-12-14T10:24:14;94289.72;;;10.12;83.76
77702;BME280;66868;42.708;23.404;2023-12-14T10:26:39;94293.06;;;10.12;83.49
77702;BME280;66868;42.708;23.404;2023-12-14T10:29:06;94268.88;;;10.08;83.32
77702;BME280;66868;42.708;23.404;2023-12-14T10:31:31;94268.38;;;10.16;82.85
77702;BME280;66868;42.708;23.404;2023-12-14T10:33:57;94283.50;;;10.29;82.56
77702;BME280;66868;42.708;23.404;2023-12-14T10:36:26;94287.31;;;10.34;82.13
77702;BME280;66868;42.708;23.404;2023-12-14T10:38:53;94297.69;;;10.18;83.21
77702;BME280;66868;42.708;23.404;2023-12-14T10:41:21;94277.19;;;10.10;82.92
77702;BME280;66868;42.708;23.404;2023-12-14T10:43:48;94313.13;;;10.27;83.08
77702;BME280;66868;42.708;23.404;2023-12-14T10:46:14;94297.69;;;10.18;83.34
77702;BME280;66868;42.708;23.404;2023-12-14T10:48:40;94313.09;;;10.39;83.29
77702;BME280;66868;42.708;23.404;2023-12-14T10:51:11;94299.81;;;10.25;82.58
77702;BME280;66868;42.708;23.404;2023-12-14T10:53:37;94316.16;;;10.32;82.11
77702;BME280;66868;42.708;23.404;2023-12-14T10:56:06;94320.09;;;10.36;82.76
77702;BME280;66868;42.708;23.404;2023-12-14T11:01:22;94346.50;;;10.55;82.84
77702;BME280;66868;42.708;23.404;2023-12-14T11:03:55;94344.56;;;10.59;82.86
77702;BME280;66868;42.708;23.404;2023-12-14T11:08:54;94343.00;;;10.69;83.73
77702;BME280;66868;42.708;23.404;2023-12-14T11:11:21;94356.94;;;10.75;83.23
77702;BME280;66868;42.708;23.404;2023-12-14T11:13:52;94346.72;;;10.76;83.38
77702;BME280;66868;42.708;23.404;2023-12-14T11:16:22;94305.66;;;10.49;83.44
77702;BME280;66868;42.708;23.404;2023-12-14T11:18:48;94349.03;;;10.79;84.63
77702;BME280;66868;42.708;23.404;2023-12-14T11:21:19;94342.53;;;10.64;84.85
77702;BME280;66868;42.708;23.404;2023-12-14T11:23:50;94350.91;;;10.64;83.08
77702;BME280;66868;42.708;23.404;2023-12-14T11:26:21;94366.91;;;10.65;82.14
77702;BME280;66868;42.708;23.404;2023-12-14T11:28:48;94382.34;;;10.62;81.36
77702;BME280;66868;42.708;23.404;2023-12-14T11:31:14;94367.56;;;10.56;81.46
77702;BME280;66868;42.708;23.404;2023-12-14T11:33:39;94363.31;;;10.33;81.13
77702;BME280;66868;42.708;23.404;2023-12-14T11:36:05;94383.44;;;10.34;80.98
77702;BME280;66868;42.708;23.404;2023-12-14T11:38:31;94382.41;;;10.37;81.22
77702;BME280;66868;42.708;23.404;2023-12-14T11:40:58;94381.91;;;10.32;80.86
77702;BME280;66868;42.708;23.404;2023-12-14T11:43:24;94380.84;;;10.23;80.73
77702;BME280;66868;42.708;23.404;2023-12-14T11:45:51;94391.09;;;10.22;80.72
77702;BME280;66868;42.708;23.404;2023-12-14T11:48:17;94396.94;;;10.22;80.66
77702;BME280;66868;42.708;23.404;2023-12-14T11:50:45;94401.66;;;10.14;80.55
77702;BME280;66868;42.708;23.404;2023-12-14T11:53:10;94405.97;;;10.01;80.88
77702;BME280;66868;42.708;23.404;2023-12-14T11:55:38;94399.09;;;9.90;80.57
77702;BME280;66868;42.708;23.404;2023-12-14T11:58:04;94410.50;;;9.96;80.62
77702;BME280;66868;42.708;23.404;2023-12-14T12:00:31;94410.13;;;9.89;80.71
77702;BME280;66868;42.708;23.404;2023-12-14T12:03:19;94414.25;;;9.90;80.83
77702;BME280;66868;42.708;23.404;2023-12-14T12:05:51;94405.19;;;9.75;80.35
77702;BME280;66868;42.708;23.404;2023-12-14T12:08:19;94414.47;;;9.62;80.31
77702;BME280;66868;42.708;23.404;2023-12-14T12:10:46;94421.16;;;9.63;80.01
77702;BME280;66868;42.708;23.404;2023-12-14T12:13:14;94416.31;;;9.60;80.54
77702;BME280;66868;42.708;23.404;2023-12-14T12:15:40;94430.56;;;9.61;80.66
77702;BME280;66868;42.708;23.404;2023-12-14T12:18:06;94410.22;;;9.50;80.93
77702;BME280;66868;42.708;23.404;2023-12-14T12:20:32;94405.38;;;9.47;81.37
77702;BME280;66868;42.708;23.404;2023-12-14T12:22:58;94428.03;;;9.61;81.20
77702;BME280;66868;42.708;23.404;2023-12-14T12:25:24;94410.22;;;9.50;80.65
77702;BME280;66868;42.708;23.404;2023-12-14T12:27:49;94406.00;;;9.50;81.04
77702;BME280;66868;42.708;23.404;2023-12-14T12:30:15;94424.19;;;9.43;82.09
77702;BME280;66868;42.708;23.404;2023-12-14T12:32:41;94412.03;;;9.35;81.65
77702;BME280;66868;42.708;23.404;2023-12-14T12:35:07;94367.16;;;9.01;81.58
77702;BME280;66868;42.708;23.404;2023-12-14T12:37:33;94420.44;;;9.36;82.05
77702;BME280;66868;42.708;23.404;2023-12-14T12:39:59;94421.53;;;9.31;82.00
77702;BME280;66868;42.708;23.404;2023-12-14T12:42:24;94419.41;;;9.25;82.03
77702;BME280;66868;42.708;23.404;2023-12-14T12:44:51;94417.47;;;9.16;81.84
77702;BME280;66868;42.708;23.404;2023-12-14T12:47:16;94423.25;;;9.18;82.67
77702;BME280;66868;42.708;23.404;2023-12-14T12:49:42;94428.97;;;9.20;81.98
77702;BME280;66868;42.708;23.404;2023-12-14T12:52:07;94432.97;;;9.24;82.58
77702;BME280;66868;42.708;23.404;2023-12-14T12:54:33;94441.81;;;9.17;83.35
77702;BME280;66868;42.708;23.404;2023-12-14T12:56:58;94427.97;;;9.10;82.75
77702;BME280;66868;42.708;23.404;2023-12-14T12:59:24;94403.69;;;8.95;83.62
77702;BME280;66868;42.708;23.404;2023-12-14T13:01:49;94443.13;;;9.10;83.12